Time;durP1;ratioP1;P1;durP2;ratioP2;P2;SDS_P1;SDS_P2;PMS_P1;PMS_P2;Temp;Humidity;BMP_temperature;BMP_pressure;BME280_temperature;BME280_humidity;BME280_pressure;Samples;Min_cycle;Max_cycle;Signal;HPM_P1;HPM_P2
2021/11/08 00:00:59;;;;;;;11.55;7.90;;;17.00;99.90;;;;;;5108055;28;20506;-61
2021/11/08 00:03:31;;;;;;;15.35;9.35;;;17.10;99.90;;;;;;5077978;28;20058;-61
2021/11/08 00:06:02;;;;;;;15.02;8.70;;;17.00;99.90;;;;;;5093179;28;20034;-60
2021/11/08 00:08:30;;;;;;;13.05;8.93;;;17.00;99.90;;;;;;5093499;28;20050;-60
2021/11/08 00:10:58;;;;;;;13.23;7.97;;;17.10;99.90;;;;;;5074401;28;20062;-60
2021/11/08 00:13:26;;;;;;;15.63;9.45;;;17.10;99.90;;;;;;5076250;28;20047;-71
2021/11/08 00:21:07;;;;;;;16.30;7.80;;;17.20;99.90;;;;;;5088214;28;19919;-60
2021/11/08 00:23:34;;;;;;;12.40;8.00;;;17.20;99.90;;;;;;5095613;28;20505;-60
2021/11/08 00:26:02;;;;;;;16.27;8.48;;;17.20;99.90;;;;;;5077988;28;20166;-61
2021/11/08 00:28:30;;;;;;;10.38;7.72;;;17.20;99.90;;;;;;5090764;28;20044;-61
2021/11/08 00:30:58;;;;;;;16.45;7.47;;;17.20;99.90;;;;;;5086173;28;20379;-60
2021/11/08 00:33:26;;;;;;;12.80;7.53;;;17.20;99.90;;;;;;5070111;28;20047;-60
2021/11/08 00:35:57;;;;;;;14.52;8.65;;;17.20;99.90;;;;;;5101635;28;20565;-60
2021/11/08 00:38:26;;;;;;;12.90;8.70;;;17.20;99.90;;;;;;5083218;28;20114;-61
2021/11/08 00:40:54;;;;;;;15.88;8.73;;;17.10;99.90;;;;;;5102944;28;20092;-60
2021/11/08 00:43:22;;;;;;;11.75;6.93;;;17.10;99.90;;;;;;5096484;28;20129;-60
2021/11/08 00:45:51;;;;;;;16.35;7.35;;;17.10;99.90;;;;;;5092132;28;20044;-60
2021/11/08 00:48:22;;;;;;;12.73;7.57;;;17.10;99.90;;;;;;5075360;28;20048;-60
2021/11/08 00:50:53;;;;;;;12.73;8.27;;;17.10;99.90;;;;;;5109869;28;20464;-60
2021/11/08 00:53:21;;;;;;;11.52;7.60;;;17.10;99.90;;;;;;5056525;28;20093;-60
2021/11/08 00:55:51;;;;;;;13.00;7.80;;;17.00;99.90;;;;;;5078415;28;20040;-60
2021/11/08 00:58:25;;;;;;;14.15;8.93;;;17.00;99.90;;;;;;5112679;28;20058;-60
2021/11/08 01:00:52;;;;;;;12.60;7.55;;;17.00;99.90;;;;;;5095009;28;20131;-60
2021/11/08 01:03:22;;;;;;;12.48;6.70;;;17.00;99.90;;;;;;5095193;28;20043;-60
2021/11/08 01:05:49;;;;;;;12.10;7.43;;;17.00;99.90;;;;;;5079039;28;20040;-60
2021/11/08 01:08:17;;;;;;;13.70;8.02;;;16.80;99.90;;;;;;5095868;28;20100;-60
2021/11/08 01:10:45;;;;;;;14.57;8.75;;;16.90;99.90;;;;;;5079017;28;20079;-60
2021/11/08 01:13:13;;;;;;;11.35;6.18;;;16.80;99.90;;;;;;5095913;28;20063;-60
2021/11/08 01:15:40;;;;;;;9.95;6.90;;;16.90;99.90;;;;;;5095898;28;20486;-60
2021/11/08 01:18:08;;;;;;;12.13;7.85;;;16.80;99.90;;;;;;5095812;28;20093;-61
2021/11/08 01:20:36;;;;;;;11.35;6.72;;;16.70;99.90;;;;;;5099666;28;20052;-60
2021/11/08 01:23:04;;;;;;;10.10;6.63;;;16.60;99.90;;;;;;5117744;28;20115;-61
2021/11/08 01:25:33;;;;;;;11.55;7.88;;;16.60;99.90;;;;;;5099797;28;20071;-60
2021/11/08 01:28:04;;;;;;;10.48;7.22;;;16.70;99.90;;;;;;5099618;28;20039;-59
2021/11/08 01:30:32;;;;;;;19.90;7.45;;;16.70;99.90;;;;;;5099780;28;20054;-59
2021/11/08 01:35:38;;;;;;;44.13;9.88;;;16.70;99.90;;;;;;5117431;28;20059;-60
2021/11/08 01:38:10;;;;;;;10.23;6.55;;;16.60;99.90;;;;;;5099987;28;20097;-60
2021/11/08 01:40:40;;;;;;;10.75;6.55;;;16.60;99.90;;;;;;5099401;28;20036;-60
2021/11/08 01:43:11;;;;;;;10.05;7.13;;;16.50;99.90;;;;;;5117489;28;20039;-60
2021/11/08 01:45:40;;;;;;;9.75;5.88;;;16.40;99.90;;;;;;5082288;28;20090;-60
2021/11/08 01:48:09;;;;;;;10.40;6.63;;;16.40;99.90;;;;;;5099037;28;20054;-60
2021/11/08 01:50:38;;;;;;;7.82;5.90;;;16.40;99.90;;;;;;5099173;28;20048;-60
2021/11/08 01:53:06;;;;;;;7.32;5.07;;;16.30;99.90;;;;;;5116746;27;20500;-60
2021/11/08 01:55:34;;;;;;;7.82;5.47;;;16.40;99.90;;;;;;5119677;27;20512;-60
2021/11/08 01:58:01;;;;;;;9.25;5.93;;;16.40;99.90;;;;;;5119482;27;20124;-60
2021/11/08 02:00:29;;;;;;;8.50;5.95;;;16.40;99.90;;;;;;5119314;27;20524;-61
2021/11/08 02:02:57;;;;;;;12.38;7.38;;;16.40;99.90;;;;;;5119655;27;20081;-59
2021/11/08 02:05:25;;;;;;;12.98;6.75;;;16.40;99.90;;;;;;5119328;27;20050;-59
2021/11/08 02:07:53;;;;;;;8.38;6.13;;;16.40;99.90;;;;;;5119531;27;20446;-59
2021/11/08 02:10:22;;;;;;;11.05;6.63;;;16.50;99.90;;;;;;5137541;27;20398;-59
2021/11/08 02:12:49;;;;;;;9.98;6.05;;;16.50;99.90;;;;;;5119382;27;20036;-60
2021/11/08 02:15:19;;;;;;;10.02;7.05;;;16.60;99.90;;;;;;5118971;27;20043;-60
2021/11/08 02:17:48;;;;;;;9.52;5.93;;;16.70;99.90;;;;;;5102149;27;20070;-61
2021/11/08 02:20:27;;;;;;;9.77;5.80;;;16.80;99.90;;;;;;5101973;27;20040;-60
2021/11/08 02:22:57;;;;;;;9.82;5.97;;;16.80;99.90;;;;;;5137251;27;20047;-59
2021/11/08 02:25:27;;;;;;;7.60;5.20;;;16.90;99.90;;;;;;5084994;27;20047;-60
2021/11/08 02:27:56;;;;;;;9.27;4.97;;;16.90;99.90;;;;;;5118882;27;20081;-60
2021/11/08 02:30:28;;;;;;;12.73;5.03;;;16.90;99.90;;;;;;5100826;27;20051;-60
2021/11/08 02:32:59;;;;;;;8.77;6.20;;;16.90;99.90;;;;;;5118845;27;20039;-59
2021/11/08 02:35:27;;;;;;;10.30;6.25;;;16.90;99.90;;;;;;5084996;27;20047;-59
2021/11/08 02:37:56;;;;;;;14.02;6.50;;;16.90;99.90;;;;;;5085019;27;20047;-60
2021/11/08 02:40:27;;;;;;;12.10;6.18;;;16.90;99.90;;;;;;5118650;27;20050;-60
2021/11/08 02:43:00;;;;;;;12.73;7.85;;;16.90;99.90;;;;;;5118588;27;20117;-60
2021/11/08 02:45:29;;;;;;;15.70;10.00;;;16.90;99.90;;;;;;5136895;27;20070;-60
2021/11/08 02:47:58;;;;;;;15.88;10.75;;;16.90;99.90;;;;;;5101300;27;20501;-59
2021/11/08 02:50:32;;;;;;;14.38;10.98;;;16.90;99.90;;;;;;5084782;27;20043;-60
2021/11/08 02:53:01;;;;;;;15.30;8.88;;;16.90;99.90;;;;;;5118569;27;20043;-60
2021/11/08 02:55:30;;;;;;;14.00;8.73;;;16.90;99.90;;;;;;5101696;27;20047;-59
2021/11/08 02:57:58;;;;;;;14.10;7.93;;;16.90;99.90;;;;;;5118499;27;20039;-60
2021/11/08 03:00:28;;;;;;;13.57;7.82;;;16.90;99.90;;;;;;5118303;27;20047;-60
2021/11/08 03:02:57;;;;;;;14.00;8.85;;;16.90;99.90;;;;;;5101108;27;20043;-60
2021/11/08 03:05:36;;;;;;;15.90;9.23;;;17.00;99.90;;;;;;5118325;27;20077;-60
2021/11/08 03:08:05;;;;;;;16.75;9.20;;;17.00;99.90;;;;;;5136401;27;20441;-61
2021/11/08 03:10:36;;;;;;;16.83;8.45;;;16.90;99.90;;;;;;5117945;27;20392;-60
2021/11/08 03:13:12;;;;;;;20.65;8.60;;;17.00;99.90;;;;;;5136649;27;20074;-60
2021/11/08 03:18:42;;;;;;;15.93;8.68;;;17.00;99.90;;;;;;5023545;28;20047;-60
2021/11/08 03:21:18;;;;;;;15.80;10.10;;;17.00;99.90;;;;;;5077048;28;20144;-60
2021/11/08 03:23:50;;;;;;;16.13;8.70;;;17.00;99.90;;;;;;5060442;28;20052;-60
2021/11/08 03:29:05;;;;;;;11.00;6.83;;;17.00;99.90;;;;;;5060472;28;20101;-60
2021/11/08 03:31:34;;;;;;;11.35;7.35;;;17.00;99.90;;;;;;5077053;28;20328;-60
2021/11/08 03:34:02;;;;;;;13.95;7.32;;;17.00;99.90;;;;;;5077136;28;20424;-61
2021/11/08 03:36:30;;;;;;;11.77;7.82;;;17.00;99.90;;;;;;5060291;28;20044;-60
2021/11/08 03:38:58;;;;;;;12.48;7.75;;;17.00;99.90;;;;;;5076850;28;20044;-59
2021/11/08 03:41:27;;;;;;;10.07;6.68;;;17.00;99.90;;;;;;5076439;28;20130;-59
2021/11/08 03:43:56;;;;;;;14.10;6.95;;;17.10;99.90;;;;;;5060036;28;20051;-59
2021/11/08 03:46:23;;;;;;;10.93;6.78;;;17.00;99.90;;;;;;5076598;28;20064;-59
2021/11/08 03:48:51;;;;;;;11.70;7.35;;;17.00;99.90;;;;;;5056727;28;20060;-60
2021/11/08 03:51:19;;;;;;;13.13;8.15;;;17.10;99.90;;;;;;5075690;28;20036;-60
2021/11/08 03:53:46;;;;;;;10.90;6.78;;;17.00;99.90;;;;;;5076808;28;20048;-60
2021/11/08 03:56:14;;;;;;;12.18;7.25;;;17.00;99.90;;;;;;5059620;28;20472;-60
2021/11/08 03:58:42;;;;;;;15.48;8.23;;;17.00;99.90;;;;;;5076617;28;20138;-59
2021/11/08 04:01:09;;;;;;;12.23;7.85;;;17.00;99.90;;;;;;5076473;28;20123;-60
2021/11/08 04:03:37;;;;;;;9.95;6.45;;;17.00;99.90;;;;;;5094392;28;20072;-61
2021/11/08 04:06:04;;;;;;;11.48;7.65;;;17.00;99.90;;;;;;5076183;28;20044;-60
2021/11/08 04:08:32;;;;;;;13.90;7.22;;;17.00;99.90;;;;;;5094171;28;20486;-60
2021/11/08 04:11:00;;;;;;;13.48;7.65;;;17.00;99.90;;;;;;5076259;28;20038;-60
2021/11/08 04:13:32;;;;;;;12.40;8.82;;;17.00;99.90;;;;;;5059681;28;20043;-60
2021/11/08 04:16:02;;;;;;;14.35;7.82;;;17.00;99.90;;;;;;5076458;28;20044;-60
2021/11/08 04:18:32;;;;;;;14.05;8.05;;;17.00;99.90;;;;;;5094057;28;20090;-60
2021/11/08 04:21:02;;;;;;;14.77;8.98;;;17.00;99.90;;;;;;5059402;28;20520;-60
2021/11/08 04:23:29;;;;;;;13.77;8.00;;;17.00;99.90;;;;;;5093979;28;20504;-60
2021/11/08 04:26:00;;;;;;;14.85;7.70;;;17.10;99.90;;;;;;5059891;28;20040;-60
2021/11/08 04:28:28;;;;;;;15.15;8.98;;;17.10;99.90;;;;;;5075980;28;20051;-59
2021/11/08 04:30:55;;;;;;;14.95;9.07;;;17.10;99.90;;;;;;5093749;28;20079;-60
2021/11/08 04:51:48;;;;;;;12.45;6.88;;;17.10;99.90;;;;;;5094061;28;20109;-60
2021/11/08 04:54:16;;;;;;;11.70;7.82;;;17.10;99.90;;;;;;5092900;28;20118;-60
2021/11/08 05:21:55;;;;;;;9.50;5.72;;;17.00;99.90;;;;;;5058528;28;20048;-60
2021/11/08 05:24:32;;;;;;;17.35;7.18;;;16.90;99.90;;;;;;5059097;28;20040;-59
2021/11/08 05:32:23;;;;;;;12.32;7.03;;;16.80;99.90;;;;;;5093170;28;20559;-60
2021/11/08 05:34:51;;;;;;;11.77;7.72;;;16.80;99.90;;;;;;5075444;28;20218;-59
2021/11/08 05:37:21;;;;;;;10.38;6.68;;;16.80;99.90;;;;;;5093145;28;20089;-59
2021/11/08 05:39:52;;;;;;;13.63;9.15;;;16.80;99.90;;;;;;5075497;28;20497;-59
2021/11/08 05:42:21;;;;;;;14.00;7.47;;;16.80;99.90;;;;;;5093257;28;20123;-59
2021/11/08 05:44:49;;;;;;;17.98;7.82;;;16.80;99.90;;;;;;5058581;28;20080;-61
2021/11/08 05:47:17;;;;;;;15.73;9.90;;;16.80;99.90;;;;;;5072272;28;20052;-59
2021/11/08 05:49:46;;;;;;;14.27;8.10;;;16.80;99.90;;;;;;5091969;28;20139;-59
2021/11/08 05:52:15;;;;;;;19.33;10.50;;;16.80;99.90;;;;;;5075174;28;20457;-60
2021/11/08 05:54:44;;;;;;;13.32;7.80;;;16.90;99.90;;;;;;5091984;28;20186;-60
2021/11/08 06:50:01;;;;;;;25.60;13.43;;;17.00;99.90;;;;;;5077895;28;20087;-60
2021/11/08 06:52:30;;;;;;;24.10;14.07;;;17.10;99.90;;;;;;5094616;28;20036;-60
2021/11/08 06:55:04;;;;;;;27.15;15.93;;;17.10;99.90;;;;;;5094690;28;20487;-60
2021/11/08 06:57:44;;;;;;;23.17;14.13;;;17.10;99.90;;;;;;5094455;28;20512;-61
2021/11/08 07:00:15;;;;;;;22.95;14.15;;;17.10;99.90;;;;;;5094136;28;20127;-60
2021/11/08 07:02:42;;;;;;;23.95;13.73;;;17.10;99.90;;;;;;5077617;28;20514;-60
2021/11/08 07:05:11;;;;;;;23.52;14.93;;;17.10;99.90;;;;;;5095392;28;20066;-60
2021/11/08 07:07:39;;;;;;;24.55;14.38;;;17.10;99.90;;;;;;5077642;28;20043;-60
2021/11/08 07:10:07;;;;;;;25.48;14.23;;;17.10;99.90;;;;;;5094085;28;20044;-60
2021/11/08 07:12:35;;;;;;;21.35;11.80;;;17.10;99.90;;;;;;5094203;28;20046;-59
2021/11/08 07:15:06;;;;;;;22.50;13.88;;;17.10;99.90;;;;;;5077073;28;20050;-60
2021/11/08 07:17:34;;;;;;;29.75;16.13;;;17.10;99.90;;;;;;5076844;28;20506;-59
2021/11/08 07:20:03;;;;;;;24.30;14.60;;;17.10;99.90;;;;;;5094009;28;20067;-63
2021/11/08 07:22:31;;;;;;;22.67;13.50;;;17.00;99.90;;;;;;5076873;28;20040;-59
2021/11/08 07:25:00;;;;;;;18.83;12.02;;;17.00;99.90;;;;;;5060466;28;20047;-60
2021/11/08 07:27:28;;;;;;;20.15;12.45;;;17.00;99.90;;;;;;5093691;28;20036;-60
2021/11/08 07:29:55;;;;;;;22.73;14.40;;;17.00;99.90;;;;;;5093846;28;20040;-60
2021/11/08 07:32:25;;;;;;;27.30;14.02;;;17.00;99.90;;;;;;5094786;28;20319;-60
2021/11/08 07:34:54;;;;;;;20.48;12.63;;;17.00;99.90;;;;;;5093705;28;20075;-59
2021/11/08 07:37:22;;;;;;;19.52;12.07;;;17.00;99.90;;;;;;5094830;28;20036;-60
2021/11/08 07:39:50;;;;;;;18.52;12.10;;;17.00;99.90;;;;;;5076727;28;20044;-60
2021/11/08 07:42:19;;;;;;;16.50;10.30;;;17.00;99.90;;;;;;5093091;28;20109;-60
2021/11/08 07:44:47;;;;;;;29.02;11.70;;;17.00;99.90;;;;;;5094674;28;20071;-61
2021/11/08 07:47:15;;;;;;;16.90;10.43;;;17.10;99.90;;;;;;5093428;28;20056;-60
2021/11/08 07:49:43;;;;;;;21.38;11.50;;;17.00;99.90;;;;;;5093435;28;20144;-59
2021/11/08 07:52:11;;;;;;;21.80;12.23;;;17.10;99.90;;;;;;5093209;28;20119;-60
2021/11/08 07:54:39;;;;;;;17.13;9.75;;;17.10;99.90;;;;;;5093165;28;20169;-60
2021/11/08 07:57:07;;;;;;;17.30;12.00;;;17.10;99.90;;;;;;5093335;28;20081;-60
2021/11/08 07:59:34;;;;;;;23.63;13.40;;;17.10;99.90;;;;;;5093463;28;20130;-60
2021/11/08 08:02:03;;;;;;;17.30;10.45;;;17.20;99.90;;;;;;5093110;28;20047;-61
2021/11/08 08:04:31;;;;;;;19.65;11.95;;;17.30;99.90;;;;;;5094455;28;20058;-59
2021/11/08 08:06:59;;;;;;;14.85;11.02;;;17.30;99.90;;;;;;5093213;28;20036;-60
2021/11/08 08:09:26;;;;;;;16.80;11.68;;;17.40;99.90;;;;;;5093158;28;20135;-60
2021/11/08 08:11:54;;;;;;;19.60;11.48;;;17.30;99.90;;;;;;5092976;28;20393;-60
2021/11/08 08:14:22;;;;;;;14.27;9.48;;;17.30;99.90;;;;;;5076222;28;20056;-60
2021/11/08 08:16:50;;;;;;;14.60;9.35;;;17.30;99.90;;;;;;5092789;28;20035;-60
2021/11/08 08:19:17;;;;;;;16.52;9.55;;;17.30;99.90;;;;;;5075899;28;20040;-59
2021/11/08 08:21:46;;;;;;;15.38;10.23;;;17.30;99.90;;;;;;5092642;28;20044;-60
2021/11/08 08:24:13;;;;;;;18.98;11.23;;;17.40;99.90;;;;;;5076051;28;20494;-60
2021/11/08 08:26:43;;;;;;;15.95;9.80;;;17.40;99.90;;;;;;5075797;28;20044;-59
2021/11/08 08:29:12;;;;;;;14.57;9.32;;;17.60;99.90;;;;;;5093077;28;20040;-60
2021/11/08 08:31:43;;;;;;;16.35;9.18;;;17.60;99.90;;;;;;5076016;28;20079;-60
2021/11/08 08:34:11;;;;;;;21.58;10.35;;;17.70;99.90;;;;;;5092716;28;20586;-60
2021/11/08 08:36:40;;;;;;;13.05;9.38;;;17.80;99.90;;;;;;5092376;28;20131;-60
2021/11/08 08:39:09;;;;;;;15.25;7.85;;;17.90;99.90;;;;;;5093068;28;20048;-60
2021/11/08 08:41:38;;;;;;;18.05;6.93;;;17.90;99.90;;;;;;5092626;28;20036;-59
2021/11/08 08:44:08;;;;;;;14.73;8.82;;;18.00;99.90;;;;;;5075939;28;20044;-59
2021/11/08 08:46:35;;;;;;;10.80;7.03;;;18.00;99.90;;;;;;5092534;28;20062;-60
2021/11/08 08:49:03;;;;;;;12.43;6.90;;;18.10;99.90;;;;;;5092476;28;20102;-60
2021/11/08 08:51:31;;;;;;;10.73;7.00;;;18.20;99.90;;;;;;5075959;28;20040;-59
2021/11/08 08:54:01;;;;;;;11.95;7.53;;;18.10;99.90;;;;;;5092574;28;20505;-59
2021/11/08 08:56:29;;;;;;;14.48;7.15;;;18.20;99.90;;;;;;5093674;28;20056;-60
2021/11/08 08:58:57;;;;;;;11.50;7.38;;;18.20;99.90;;;;;;5076179;28;20127;-59
2021/11/08 09:01:26;;;;;;;12.85;7.80;;;18.20;99.90;;;;;;5092394;28;20140;-59
2021/11/08 09:03:55;;;;;;;10.93;7.47;;;18.20;99.90;;;;;;5058866;28;20117;-60
2021/11/08 09:06:24;;;;;;;11.65;7.90;;;18.30;99.90;;;;;;5092147;28;20041;-60
2021/11/08 09:08:53;;;;;;;12.15;8.43;;;18.30;99.90;;;;;;5075619;28;20094;-59
2021/11/08 09:11:22;;;;;;;15.90;8.15;;;18.30;99.90;;;;;;5092356;28;20048;-59
2021/11/08 09:13:51;;;;;;;13.77;8.80;;;18.30;99.90;;;;;;5075489;28;20036;-60
2021/11/08 09:16:19;;;;;;;10.55;8.73;;;18.30;99.90;;;;;;5092120;28;20039;-59
2021/11/08 09:18:53;;;;;;;14.15;7.82;;;18.40;99.90;;;;;;5092066;28;20457;-60
2021/11/08 09:21:24;;;;;;;13.57;7.30;;;18.50;99.90;;;;;;5076017;28;20051;-59
2021/11/08 09:23:53;;;;;;;14.07;8.52;;;18.50;99.90;;;;;;5092272;28;20187;-59
2021/11/08 09:26:20;;;;;;;12.05;7.15;;;18.50;99.90;;;;;;5090924;28;20549;-59
2021/11/08 09:28:49;;;;;;;14.00;7.43;;;18.50;99.90;;;;;;5090708;28;20036;-59
2021/11/08 09:31:19;;;;;;;13.95;9.55;;;18.60;99.90;;;;;;5104601;28;20039;-59
2021/11/08 09:33:49;;;;;;;16.85;9.07;;;18.50;99.90;;;;;;5115817;28;20494;-59
2021/11/08 09:36:17;;;;;;;14.13;7.70;;;18.60;99.90;;;;;;5114721;28;20038;-59
2021/11/08 09:38:58;;;;;;;16.33;8.27;;;18.60;99.90;;;;;;5079505;28;20126;-59
2021/11/08 09:41:34;;;;;;;17.35;9.23;;;18.70;99.90;;;;;;5121848;27;20047;-59
2021/11/08 09:44:05;;;;;;;12.97;9.00;;;18.70;99.90;;;;;;5126119;27;20477;-59
2021/11/08 09:46:35;;;;;;;14.25;10.15;;;18.60;99.90;;;;;;5111506;27;20058;-59
2021/11/08 09:49:06;;;;;;;16.30;8.13;;;18.70;99.90;;;;;;5120002;27;20494;-60
2021/11/08 09:51:43;;;;;;;15.93;9.52;;;18.80;99.90;;;;;;5119672;27;20126;-61
2021/11/08 09:54:13;;;;;;;19.10;9.68;;;18.90;99.90;;;;;;5121841;27;20073;-59
2021/11/08 09:56:42;;;;;;;23.35;9.45;;;19.10;99.90;;;;;;5086647;27;20047;-59
2021/11/08 09:59:11;;;;;;;16.88;8.80;;;19.30;99.90;;;;;;5125981;27;20089;-59
2021/11/08 10:01:47;;;;;;;11.88;7.60;;;19.40;99.90;;;;;;5115989;27;20054;-59
2021/11/08 10:04:15;;;;;;;12.48;7.57;;;19.50;99.90;;;;;;5107681;27;20051;-59
2021/11/08 10:06:44;;;;;;;13.85;8.95;;;19.70;99.90;;;;;;5120445;27;20477;-59
2021/11/08 10:09:13;;;;;;;13.68;8.57;;;19.70;99.90;;;;;;5084745;28;20047;-70
2021/11/08 10:11:44;;;;;;;25.13;9.52;;;19.70;99.90;;;;;;5114425;28;20115;-63
2021/11/08 10:14:12;;;;;;;14.27;8.82;;;19.80;99.90;;;;;;5115469;28;20117;-64
2021/11/08 10:16:42;;;;;;;18.65;9.68;;;19.80;99.90;;;;;;5115588;28;20439;-64
2021/11/08 10:19:14;;;;;;;13.38;10.13;;;19.70;99.90;;;;;;5114371;28;20111;-64
2021/11/08 10:21:49;;;;;;;18.50;10.75;;;19.70;99.90;;;;;;5115621;28;20482;-64
2021/11/08 10:24:29;;;;;;;13.60;9.27;;;19.80;99.90;;;;;;5114273;28;20043;-63
2021/11/08 10:27:00;;;;;;;16.67;8.90;;;19.80;99.90;;;;;;5115710;28;20059;-65
2021/11/08 10:29:29;;;;;;;13.23;8.63;;;19.80;99.90;;;;;;5115408;28;20039;-64
2021/11/08 10:32:07;;;;;;;19.73;9.88;;;20.00;99.90;;;;;;5113800;28;20495;-64
2021/11/08 10:34:44;;;;;;;24.50;11.85;;;20.00;99.90;;;;;;5115073;28;20118;-64
2021/11/08 10:37:21;;;;;;;12.20;8.40;;;20.00;99.90;;;;;;5115081;27;20516;-64
2021/11/08 10:39:48;;;;;;;15.38;9.73;;;20.00;99.90;;;;;;5115426;28;20466;-64
2021/11/08 10:42:22;;;;;;;17.23;9.85;;;20.00;99.90;;;;;;5113776;28;20047;-64
2021/11/08 10:44:50;;;;;;;19.13;10.73;;;19.90;99.90;;;;;;5115146;28;20036;-65
2021/11/08 10:47:21;;;;;;;16.95;10.82;;;19.80;99.90;;;;;;5115030;28;20413;-64
2021/11/08 10:49:50;;;;;;;18.65;11.02;;;20.00;99.90;;;;;;5115002;28;20489;-65
2021/11/08 10:52:19;;;;;;;16.00;10.27;;;20.00;99.90;;;;;;5095366;28;20473;-66
2021/11/08 10:54:54;;;;;;;16.15;9.63;;;20.00;99.90;;;;;;5114682;28;20504;-66
2021/11/08 10:57:27;;;;;;;21.42;11.20;;;19.90;99.90;;;;;;5096078;28;20485;-66
2021/11/08 10:59:56;;;;;;;15.13;9.68;;;19.80;99.90;;;;;;5096326;28;20137;-66
2021/11/08 11:02:27;;;;;;;14.98;9.95;;;19.80;99.90;;;;;;5115711;28;20042;-66
2021/11/08 11:04:58;;;;;;;14.07;9.88;;;19.80;99.90;;;;;;5097594;28;20039;-65
2021/11/08 11:07:35;;;;;;;20.48;10.27;;;19.80;99.90;;;;;;5115743;28;20071;-65
2021/11/08 11:10:11;;;;;;;22.75;11.18;;;19.80;99.90;;;;;;5101053;27;20540;-66
2021/11/08 11:12:44;;;;;;;17.10;10.60;;;20.00;99.90;;;;;;5118289;27;20401;-65
2021/11/08 11:15:32;;;;;;;16.63;10.48;;;20.20;99.90;;;;;;5136198;27;20069;-66
2021/11/08 11:18:00;;;;;;;21.27;10.43;;;20.40;99.90;;;;;;5118155;27;20038;-65
2021/11/08 11:20:32;;;;;;;19.25;9.98;;;20.50;99.90;;;;;;5101105;27;20058;-66
2021/11/08 11:23:14;;;;;;;25.00;10.65;;;20.60;99.90;;;;;;5136124;27;20035;-65
2021/11/08 11:25:50;;;;;;;14.63;9.70;;;20.70;99.90;;;;;;5117936;27;20047;-66
2021/11/08 11:28:32;;;;;;;18.75;10.38;;;20.70;99.90;;;;;;5118006;27;20378;-66
2021/11/08 11:31:00;;;;;;;16.02;10.52;;;20.60;99.90;;;;;;5117581;27;20043;-65
2021/11/08 11:33:29;;;;;;;17.70;12.10;;;20.40;99.90;;;;;;5135720;27;20130;-66
2021/11/08 11:36:12;;;;;;;18.83;11.15;;;20.40;99.90;;;;;;5100517;27;20566;-65
2021/11/08 11:38:44;;;;;;;17.80;10.43;;;20.60;99.90;;;;;;5135679;27;20043;-66
2021/11/08 11:41:25;;;;;;;19.35;11.68;;;20.70;99.90;;;;;;5135671;27;20043;-66
2021/11/08 11:44:00;;;;;;;15.75;10.48;;;20.70;99.90;;;;;;5100302;27;20069;-66
2021/11/08 11:46:32;;;;;;;16.60;10.90;;;20.70;99.90;;;;;;5135739;27;20047;-66
2021/11/08 11:49:03;;;;;;;16.50;11.35;;;20.60;99.90;;;;;;5117131;27;20620;-65
2021/11/08 11:51:34;;;;;;;22.10;11.35;;;20.60;99.90;;;;;;5117578;27;20036;-66
2021/11/08 11:54:03;;;;;;;15.82;10.48;;;20.50;99.90;;;;;;5117304;27;20055;-65
2021/11/08 11:56:34;;;;;;;15.57;10.27;;;20.30;99.90;;;;;;5117346;27;20096;-65
2021/11/08 11:59:02;;;;;;;18.23;10.40;;;20.30;99.90;;;;;;5135437;27;20066;-65
2021/11/08 12:01:31;;;;;;;19.88;11.43;;;20.20;99.90;;;;;;5117042;27;20043;-65
2021/11/08 12:04:12;;;;;;;17.35;10.75;;;20.20;99.90;;;;;;5135142;27;20065;-65
2021/11/08 12:06:44;;;;;;;18.20;12.20;;;20.20;99.90;;;;;;5117324;27;20431;-65
2021/11/08 12:09:18;;;;;;;26.13;14.10;;;20.20;99.90;;;;;;5135378;27;20100;-66
2021/11/08 12:11:48;;;;;;;21.98;11.85;;;20.20;99.90;;;;;;5117114;27;20082;-66
2021/11/08 12:14:22;;;;;;;23.55;13.38;;;20.30;99.90;;;;;;5116968;27;20072;-66
2021/11/08 12:16:54;;;;;;;18.92;10.93;;;20.30;99.90;;;;;;5116901;27;20142;-66
2021/11/08 12:19:38;;;;;;;19.25;11.77;;;20.30;99.90;;;;;;5117575;27;20092;-66
2021/11/08 12:22:14;;;;;;;19.70;11.95;;;20.30;99.90;;;;;;5116812;27;20083;-67
2021/11/08 12:24:54;;;;;;;15.82;9.80;;;20.40;99.90;;;;;;5117058;27;20088;-66
2021/11/08 12:27:40;;;;;;;18.70;10.77;;;20.50;99.90;;;;;;5116770;27;20116;-66
2021/11/08 12:30:12;;;;;;;19.42;12.30;;;20.60;99.90;;;;;;5116413;27;20498;-66
2021/11/08 12:32:49;;;;;;;24.85;13.52;;;20.60;99.90;;;;;;5116494;27;20497;-67
2021/11/08 12:35:23;;;;;;;19.58;12.75;;;20.70;99.90;;;;;;5099807;27;20047;-66
2021/11/08 12:37:52;;;;;;;21.25;11.20;;;20.70;99.90;;;;;;5098311;27;20084;-66
2021/11/08 12:40:26;;;;;;;18.55;12.27;;;20.80;99.90;;;;;;5096803;27;20047;-68
2021/11/08 12:42:55;;;;;;;27.50;12.10;;;20.80;99.90;;;;;;5092258;28;20487;-67
2021/11/08 12:45:29;;;;;;;24.38;12.20;;;20.90;99.90;;;;;;5098560;28;20066;-66
2021/11/08 12:47:59;;;;;;;22.02;12.70;;;20.90;99.90;;;;;;5055553;28;20139;-66
2021/11/08 12:50:49;;;;;;;23.85;13.30;;;20.90;99.90;;;;;;5073687;28;20070;-66
2021/11/08 12:53:26;;;;;;;19.35;12.75;;;20.90;99.90;;;;;;5038426;28;20073;-66
2021/11/08 12:55:59;;;;;;;20.58;13.32;;;20.90;99.90;;;;;;5072698;28;20048;-66
2021/11/08 12:58:38;;;;;;;21.00;12.65;;;20.80;99.90;;;;;;5061681;28;20436;-66
2021/11/08 13:01:11;;;;;;;24.00;14.38;;;20.80;99.90;;;;;;5089588;28;20131;-67
2021/11/08 13:03:41;;;;;;;21.52;14.18;;;20.80;99.90;;;;;;5054251;28;20048;-67
2021/11/08 13:06:23;;;;;;;23.77;12.57;;;20.70;99.90;;;;;;5087289;28;20032;-67
2021/11/08 13:09:06;;;;;;;23.40;13.10;;;20.70;99.90;;;;;;5092533;28;20487;-66
2021/11/08 13:11:51;;;;;;;21.20;13.55;;;20.70;99.90;;;;;;5099107;28;20036;-67
2021/11/08 13:14:25;;;;;;;19.23;12.63;;;20.70;99.90;;;;;;5098586;28;20044;-67
2021/11/08 13:17:26;;;;;;;21.58;12.27;;;20.60;99.90;;;;;;5054705;28;20043;-66
2021/11/08 13:20:15;;;;;;;39.10;14.15;;;20.50;99.90;;;;;;5050974;28;20082;-66
2021/11/08 13:22:51;;;;;;;23.90;14.45;;;20.50;99.90;;;;;;5076189;28;20075;-66
2021/11/08 13:25:23;;;;;;;23.13;13.38;;;20.50;99.90;;;;;;5095853;28;20126;-66
2021/11/08 13:28:06;;;;;;;17.67;12.85;;;20.50;99.90;;;;;;5096099;28;20036;-66
2021/11/08 13:30:43;;;;;;;21.15;12.50;;;20.50;99.90;;;;;;5095899;28;20090;-66
2021/11/08 13:33:13;;;;;;;21.98;13.93;;;20.50;99.90;;;;;;5077885;28;20490;-66
2021/11/08 13:35:43;;;;;;;17.55;11.80;;;20.40;99.90;;;;;;5095938;28;20044;-66
2021/11/08 13:38:16;;;;;;;21.05;11.75;;;20.40;99.90;;;;;;5095585;28;20508;-66
2021/11/08 13:40:50;;;;;;;24.60;12.93;;;20.40;99.90;;;;;;5095642;28;20068;-66
2021/11/08 13:43:26;;;;;;;25.48;12.88;;;20.40;99.90;;;;;;5061222;28;20044;-66
2021/11/08 13:45:58;;;;;;;;;;;20.40;99.90;;;;;;5065174;28;20055;-65
2021/11/08 13:48:44;;;;;;;30.85;14.45;;;20.40;99.90;;;;;;5081580;28;19969;-65
2021/11/08 13:51:45;;;;;;;18.17;12.77;;;20.30;99.90;;;;;;5115944;28;20050;-66
2021/11/08 13:54:16;;;;;;;22.42;13.90;;;20.40;99.90;;;;;;5073286;28;20055;-66
2021/11/08 13:56:53;;;;;;;19.15;12.75;;;20.30;99.90;;;;;;5115983;28;20043;-65
2021/11/08 13:59:25;;;;;;;20.42;12.20;;;20.20;99.90;;;;;;5115786;28;20050;-66
2021/11/08 14:01:59;;;;;;;20.48;12.85;;;20.20;99.90;;;;;;5098143;28;20069;-64
2021/11/08 14:05:04;;;;;;;19.75;13.68;;;20.20;99.90;;;;;;5116254;28;20050;-66
2021/11/08 14:07:33;;;;;;;23.27;11.52;;;20.10;99.90;;;;;;5114332;28;20050;-65
2021/11/08 14:10:01;;;;;;;22.25;12.77;;;20.10;99.90;;;;;;5115594;28;20393;-65
2021/11/08 14:12:31;;;;;;;22.15;13.60;;;20.20;99.90;;;;;;5117153;28;20071;-65
2021/11/08 14:15:00;;;;;;;24.20;13.93;;;20.10;99.90;;;;;;5116890;28;20077;-65
2021/11/08 14:17:30;;;;;;;27.45;13.18;;;20.10;99.90;;;;;;5115485;28;20081;-67
2021/11/08 14:20:03;;;;;;;20.83;13.48;;;20.20;99.90;;;;;;5117066;28;20123;-67
2021/11/08 14:22:33;;;;;;;20.35;14.15;;;20.20;99.90;;;;;;5098802;28;20051;-67
2021/11/08 14:25:02;;;;;;;24.20;12.98;;;20.20;99.90;;;;;;5098650;28;20040;-67
2021/11/08 14:27:32;;;;;;;30.83;12.57;;;20.10;99.90;;;;;;5115356;28;20039;-67
2021/11/08 14:30:21;;;;;;;22.92;13.82;;;20.10;99.90;;;;;;5098071;28;20547;-67
2021/11/08 14:32:52;;;;;;;26.48;16.30;;;20.10;99.90;;;;;;5116659;28;20047;-66
2021/11/08 14:35:27;;;;;;;26.27;15.52;;;20.00;99.90;;;;;;5116351;28;20385;-67
2021/11/08 14:38:11;;;;;;;21.42;14.43;;;20.00;99.90;;;;;;5116649;28;20039;-68
2021/11/08 14:40:44;;;;;;;22.20;14.45;;;20.00;99.90;;;;;;5116314;28;20051;-68
2021/11/08 14:43:16;;;;;;;24.33;14.07;;;19.90;99.90;;;;;;5115055;28;20086;-68
2021/11/08 14:45:59;;;;;;;27.65;14.85;;;19.90;99.90;;;;;;5114865;28;20086;-68
2021/11/08 14:48:29;;;;;;;26.77;13.20;;;19.90;99.90;;;;;;5114854;28;20070;-67